Time;durP1;ratioP1;P1;durP2;ratioP2;P2;SDS_P1;SDS_P2;PMS_P1;PMS_P2;Temp;Humidity;BMP_temperature;BMP_pressure;BME280_temperature;BME280_humidity;BME280_pressure;Samples;Min_cycle;Max_cycle;Signal;HPM_P1;HPM_P2
2022/04/16 00:02:27;;;;;;;8.17;5.63;;;;;;;12.81;100.00;96802.41;5071468;28;20220;-85
2022/04/16 00:04:54;;;;;;;9.63;5.20;;;;;;;12.78;100.00;96800.16;5048941;28;20445;-84
2022/04/16 00:07:21;;;;;;;8.80;5.20;;;;;;;12.80;100.00;96804.31;5057674;28;20203;-84
2022/04/16 00:09:49;;;;;;;8.80;4.60;;;;;;;12.81;100.00;96802.41;5054790;28;20316;-84
2022/04/16 00:12:17;;;;;;;5.90;4.53;;;;;;;12.72;100.00;96799.22;5050247;28;20200;-84
2022/04/16 00:14:44;;;;;;;8.60;4.70;;;;;;;12.64;100.00;96794.16;5059466;28;20284;-84
2022/04/16 00:17:11;;;;;;;6.30;4.80;;;;;;;12.63;100.00;96795.19;5062654;28;20209;-84
2022/04/16 00:19:38;;;;;;;7.83;5.00;;;;;;;12.55;100.00;96792.00;5047884;28;20210;-83
2022/04/16 00:22:07;;;;;;;9.07;5.33;;;;;;;12.49;100.00;96789.16;5064366;28;20222;-83
2022/04/16 00:24:34;;;;;;;6.60;5.10;;;;;;;12.47;100.00;96795.88;5054267;28;20232;-83
2022/04/16 00:27:01;;;;;;;7.77;4.63;;;;;;;12.42;100.00;96793.84;5052790;28;20204;-84
2022/04/16 00:29:30;;;;;;;8.10;4.73;;;;;;;12.43;100.00;96784.66;5056453;28;20260;-84
2022/04/16 00:31:57;;;;;;;6.00;4.90;;;;;;;12.47;100.00;96783.16;5047687;28;20221;-84
2022/04/16 00:34:24;;;;;;;5.13;4.40;;;;;;;12.40;100.00;96787.00;5050144;28;20208;-84
2022/04/16 00:36:51;;;;;;;10.50;4.10;;;;;;;12.35;100.00;96784.16;5076468;28;20209;-84
2022/04/16 00:39:18;;;;;;;7.47;4.67;;;;;;;12.26;100.00;96782.81;5060749;28;20304;-86
2022/04/16 00:41:45;;;;;;;6.97;4.63;;;;;;;12.29;100.00;96790.50;5049383;28;20233;-85
2022/04/16 00:44:13;;;;;;;6.33;4.83;;;;;;;12.29;100.00;96785.91;5048574;28;20230;-85
2022/04/16 00:46:41;;;;;;;6.77;4.63;;;;;;;12.29;100.00;96794.03;5050885;28;20209;-84
2022/04/16 00:49:08;;;;;;;9.07;5.33;;;;;;;12.28;100.00;96791.56;5054653;28;20202;-84
2022/04/16 00:51:36;;;;;;;9.73;5.10;;;;;;;12.20;100.00;96792.72;5056400;28;20195;-84
2022/04/16 00:54:03;;;;;;;6.53;4.77;;;;;;;12.17;100.00;96795.03;5062614;28;20383;-84
2022/04/16 00:56:30;;;;;;;9.30;5.10;;;;;;;12.07;100.00;96788.31;5063137;28;20210;-84
2022/04/16 00:58:58;;;;;;;7.90;5.13;;;;;;;11.95;100.00;96792.84;5052834;28;20246;-84
2022/04/16 01:01:25;;;;;;;8.63;5.10;;;;;;;11.87;100.00;96795.03;5070370;28;20236;-84
2022/04/16 01:03:54;;;;;;;8.80;4.90;;;;;;;11.81;100.00;96793.25;5076584;28;20235;-84
2022/04/16 01:06:21;;;;;;;9.80;5.33;;;;;;;11.74;100.00;96793.25;5058991;28;20209;-83
2022/04/16 01:08:48;;;;;;;8.87;5.27;;;;;;;11.71;100.00;96802.69;5055405;28;20236;-83
2022/04/16 01:11:16;;;;;;;6.03;5.17;;;;;;;11.68;100.00;96802.28;5054424;28;20293;-83
2022/04/16 01:13:46;;;;;;;7.57;5.20;;;;;;;11.63;100.00;96794.88;5062226;28;20209;-85
2022/04/16 01:16:13;;;;;;;6.53;4.50;;;;;;;11.69;100.00;96798.53;5052276;28;20221;-85
2022/04/16 01:18:46;;;;;;;5.80;4.60;;;;;;;11.69;100.00;96795.84;5076251;28;20210;-84
2022/04/16 01:21:15;;;;;;;6.60;4.30;;;;;;;11.69;100.00;96801.25;5066606;28;20214;-83
2022/04/16 01:23:43;;;;;;;9.10;5.33;;;;;;;11.66;100.00;96794.41;5064730;28;20237;-82
2022/04/16 01:26:11;;;;;;;6.40;5.00;;;;;;;11.55;100.00;96791.63;5058404;28;20205;-83
2022/04/16 01:28:38;;;;;;;7.23;5.60;;;;;;;11.47;100.00;96787.38;5057168;28;20201;-83
2022/04/16 01:31:05;;;;;;;9.20;5.00;;;;;;;11.46;100.00;96793.00;5050174;28;20209;-84
2022/04/16 01:33:32;;;;;;;9.90;4.80;;;;;;;11.48;100.00;96807.94;5054478;28;20212;-84
2022/04/16 01:35:59;;;;;;;7.83;5.03;;;;;;;11.46;100.00;96796.53;5055247;28;20210;-83
2022/04/16 01:38:26;;;;;;;10.07;5.17;;;;;;;11.49;100.00;96800.63;5062124;28;20201;-83
2022/04/16 01:40:56;;;;;;;7.57;4.30;;;;;;;11.51;100.00;96798.53;5061762;28;20227;-84
2022/04/16 01:43:25;;;;;;;8.87;4.60;;;;;;;11.50;100.00;96800.41;5074054;28;20222;-83
2022/04/16 01:45:54;;;;;;;9.97;5.30;;;;;;;11.49;100.00;96792.53;5055377;28;20275;-82
2022/04/16 01:48:22;;;;;;;6.30;5.20;;;;;;;11.46;100.00;96798.41;5060793;28;20213;-83
2022/04/16 01:50:49;;;;;;;7.93;4.77;;;;;;;11.31;100.00;96788.75;5055579;28;20197;-84
2022/04/16 01:53:18;;;;;;;9.87;5.03;;;;;;;11.31;100.00;96796.88;5055762;28;20213;-83
2022/04/16 01:55:47;;;;;;;6.97;5.00;;;;;;;11.29;100.00;96793.59;5073862;28;20214;-84
2022/04/16 01:58:15;;;;;;;8.70;5.07;;;;;;;11.25;100.00;96786.97;5048764;28;20205;-84
2022/04/16 02:00:46;;;;;;;6.60;5.00;;;;;;;11.23;100.00;96785.50;5058279;28;20240;-84
2022/04/16 02:03:23;;;;;;;8.13;4.90;;;;;;;11.27;100.00;96790.28;5070441;28;20255;-84
2022/04/16 02:05:50;;;;;;;7.73;4.60;;;;;;;11.30;100.00;96781.72;5056367;28;20209;-83
2022/04/16 02:08:18;;;;;;;7.67;5.27;;;;;;;11.36;100.00;96794.34;5072968;28;20935;-83
2022/04/16 02:10:45;;;;;;;6.43;5.13;;;;;;;11.35;100.00;96799.97;5074519;28;20213;-83
2022/04/16 02:13:12;;;;;;;7.77;5.67;;;;;;;11.27;100.00;96790.28;5053691;28;20198;-83
2022/04/16 02:15:40;;;;;;;7.50;5.37;;;;;;;11.30;100.00;96786.31;5063222;28;20277;-82
2022/04/16 02:18:08;;;;;;;5.90;5.00;;;;;;;11.33;100.00;96780.44;5075660;28;20312;-82
2022/04/16 02:20:36;;;;;;;8.40;4.73;;;;;;;11.41;100.00;96790.13;5069982;28;20216;-83
2022/04/16 02:23:04;;;;;;;12.13;5.03;;;;;;;11.42;100.00;96802.59;5059872;28;20283;-83
2022/04/16 02:25:33;;;;;;;8.57;4.80;;;;;;;11.31;100.00;96788.75;5055132;28;20297;-83
2022/04/16 02:28:01;;;;;;;9.77;4.70;;;;;;;11.35;100.00;96794.56;5049336;28;20209;-83
2022/04/16 02:30:30;;;;;;;7.23;4.93;;;;;;;11.34;100.00;96790.19;5059722;28;20206;-84
2022/04/16 02:33:01;;;;;;;6.47;4.70;;;;;;;11.43;100.00;96790.72;5053071;28;20206;-84
2022/04/16 02:35:32;;;;;;;7.10;5.43;;;;;;;11.45;100.00;96796.75;5064629;28;20210;-83
2022/04/16 02:37:59;;;;;;;8.53;5.00;;;;;;;11.47;100.00;96802.75;5062621;28;20209;-83
2022/04/16 02:40:27;;;;;;;7.60;4.53;;;;;;;11.46;100.00;96803.81;5075970;28;20257;-83
2022/04/16 02:42:54;;;;;;;7.23;4.63;;;;;;;11.50;100.00;96808.53;5056566;28;20229;-82
2022/04/16 02:48:11;;;;;;;9.40;5.57;;;;;;;11.38;100.00;96800.34;5074632;28;20210;-82
2022/04/16 02:50:39;;;;;;;9.23;5.33;;;;;;;11.27;100.00;96806.50;5053018;28;20220;-82
2022/04/16 02:53:06;;;;;;;7.73;5.00;;;;;;;11.18;100.00;96804.28;5061254;28;20280;-82
2022/04/16 02:55:38;;;;;;;6.87;4.97;;;;;;;11.13;100.00;96801.44;5055512;28;20213;-81
2022/04/16 02:58:06;;;;;;;6.63;5.17;;;;;;;11.16;100.00;96809.91;5054762;28;20206;-82
2022/04/16 03:00:34;;;;;;;6.83;5.17;;;;;;;11.13;100.00;96804.97;5061807;28;20221;-82
2022/04/16 03:03:01;;;;;;;12.03;5.47;;;;;;;11.15;100.00;96813.66;5059278;28;20209;-83
2022/04/16 03:05:30;;;;;;;8.03;4.87;;;;;;;11.12;100.00;96797.09;5056674;28;20232;-83
2022/04/16 03:07:57;;;;;;;8.67;5.03;;;;;;;11.18;100.00;96802.41;5053052;28;20237;-83
2022/04/16 03:10:24;;;;;;;9.13;5.53;;;;;;;11.18;100.00;96809.69;5050989;28;20301;-83
2022/04/16 03:12:53;;;;;;;6.83;5.47;;;;;;;11.21;100.00;96809.25;5058131;28;20197;-83
2022/04/16 03:18:07;;;;;;;9.10;5.53;;;;;;;11.21;100.00;96807.38;5075467;28;20225;-82
2022/04/16 03:20:37;;;;;;;9.27;5.50;;;;;;;11.17;100.00;96806.16;5063769;28;20202;-83
2022/04/16 03:23:05;;;;;;;7.23;4.63;;;;;;;11.09;100.00;96798.34;5053704;28;20257;-82
2022/04/16 03:25:32;;;;;;;7.33;5.10;;;;;;;10.99;100.00;96798.03;5067875;28;20210;-82
2022/04/16 03:27:59;;;;;;;6.93;4.70;;;;;;;10.96;100.00;96791.19;5062138;28;20317;-84
2022/04/16 03:30:26;;;;;;;6.57;4.40;;;;;;;10.94;100.00;96795.16;5057028;28;20300;-83
2022/04/16 03:32:54;;;;;;;7.63;5.10;;;;;;;10.92;100.00;96798.09;5056089;28;20283;-82
2022/04/16 03:35:23;;;;;;;7.47;4.97;;;;;;;10.91;100.00;96787.50;5052719;28;20213;-83
2022/04/16 03:37:52;;;;;;;7.40;5.20;;;;;;;10.88;100.00;96787.94;5061828;28;20259;-83
2022/04/16 03:40:19;;;;;;;8.10;5.20;;;;;;;10.82;100.00;96789.66;5053406;28;20293;-83
2022/04/16 03:42:47;;;;;;;7.63;4.87;;;;;;;10.81;100.00;96789.88;5055967;28;20398;-83
2022/04/16 03:45:21;;;;;;;4.83;4.30;;;;;;;10.84;100.00;96792.13;5056488;28;20210;-84
2022/04/16 03:47:48;;;;;;;6.83;4.73;;;;;;;10.87;100.00;96794.41;5052582;28;20302;-85
2022/04/16 03:50:16;;;;;;;9.03;4.83;;;;;;;10.86;100.00;96793.56;5062494;28;20209;-84
2022/04/16 03:52:44;;;;;;;7.87;4.70;;;;;;;10.82;100.00;96783.41;5057875;28;20213;-84
2022/04/16 04:00:40;;;;;;;9.53;4.93;;;;;;;10.83;100.00;96793.19;5016108;28;20240;-83
2022/04/16 04:03:07;;;;;;;7.10;4.60;;;;;;;10.83;100.00;96796.72;5056512;28;20236;-85
2022/04/16 04:05:35;;;;;;;7.13;5.00;;;;;;;10.80;100.00;96797.13;5064606;28;20198;-84
2022/04/16 04:08:02;;;;;;;6.53;4.90;;;;;;;10.82;100.00;96799.63;5061758;28;20209;-84
2022/04/16 04:10:31;;;;;;;7.07;4.83;;;;;;;10.75;100.00;96805.09;5069057;28;20246;-84
2022/04/16 04:12:58;;;;;;;8.57;5.07;;;;;;;10.72;100.00;96802.81;5059002;28;20204;-84
2022/04/16 04:15:26;;;;;;;7.10;5.53;;;;;;;10.66;100.00;96810.97;5072073;28;20202;-84
2022/04/16 04:17:53;;;;;;;5.17;4.67;;;;;;;10.61;100.00;96811.66;5060066;28;20217;-83
2022/04/16 04:20:20;;;;;;;7.23;5.00;;;;;;;10.54;100.00;96818.97;5060127;28;20209;-84
2022/04/16 04:22:47;;;;;;;6.63;5.20;;;;;;;10.53;100.00;96817.31;5077660;28;20229;-81
2022/04/16 04:25:14;;;;;;;6.53;4.97;;;;;;;10.54;100.00;96821.69;5067979;28;20225;-82
2022/04/16 04:27:43;;;;;;;7.67;5.57;;;;;;;10.47;100.00;96816.28;5060381;28;20295;-82
2022/04/16 04:30:11;;;;;;;7.53;6.10;;;;;;;10.43;100.00;96825.88;5059029;28;20221;-82
2022/04/16 04:32:38;;;;;;;9.77;5.97;;;;;;;10.32;100.00;96821.19;5062865;28;20209;-82
2022/04/16 04:35:07;;;;;;;8.30;5.60;;;;;;;10.22;100.00;96824.34;5063098;28;20206;-82
2022/04/16 04:37:34;;;;;;;6.83;5.30;;;;;;;10.10;100.00;96823.34;5059683;28;20255;-84
2022/04/16 04:40:02;;;;;;;6.47;5.37;;;;;;;9.99;100.00;96820.50;5064357;28;20285;-82
2022/04/16 04:42:30;;;;;;;8.40;5.47;;;;;;;9.99;100.00;96823.19;5071848;28;20225;-82
2022/04/16 04:44:59;;;;;;;6.10;5.27;;;;;;;10.00;100.00;96820.28;5060514;28;20209;-82
2022/04/16 04:47:26;;;;;;;9.40;5.50;;;;;;;10.05;100.00;96830.41;5066524;28;20209;-82
2022/04/16 04:49:53;;;;;;;10.03;5.87;;;;;;;10.07;100.00;96836.44;5056040;28;20202;-82
2022/04/16 04:52:26;;;;;;;8.53;5.47;;;;;;;10.09;100.00;96837.88;5066686;28;20228;-83
2022/04/16 04:54:53;;;;;;;7.53;5.40;;;;;;;10.11;100.00;96830.41;5060516;28;20194;-83
2022/04/16 04:57:20;;;;;;;11.07;5.53;;;;;;;10.18;100.00;96844.72;5066499;28;20198;-83
2022/04/16 04:59:47;;;;;;;9.33;6.20;;;;;;;10.17;100.00;96837.66;5056977;28;20217;-83
2022/04/16 05:02:16;;;;;;;7.27;5.23;;;;;;;10.18;100.00;96833.94;5060042;28;20201;-83
2022/04/16 05:04:44;;;;;;;8.10;5.90;;;;;;;10.24;100.00;96845.72;5069176;28;20220;-83
2022/04/16 05:07:11;;;;;;;8.60;5.20;;;;;;;10.30;100.00;96852.94;5061733;28;20193;-84
2022/04/16 05:09:38;;;;;;;7.03;5.30;;;;;;;10.31;100.00;96851.91;5071211;28;20217;-83
2022/04/16 05:12:07;;;;;;;7.27;4.97;;;;;;;10.26;100.00;96851.75;5064451;28;20212;-82
2022/04/16 05:14:34;;;;;;;6.93;5.27;;;;;;;10.29;100.00;96858.59;5059210;28;20473;-83
2022/04/16 05:17:01;;;;;;;9.07;5.33;;;;;;;10.30;100.00;96857.53;5059930;28;20205;-84
2022/04/16 05:19:30;;;;;;;5.60;5.00;;;;;;;10.18;100.00;96852.00;5077877;28;20201;-85
2022/04/16 05:21:57;;;;;;;9.20;4.97;;;;;;;10.24;100.00;96853.81;5055419;28;20232;-83
2022/04/16 05:24:24;;;;;;;8.50;5.60;;;;;;;10.20;100.00;96852.63;5071828;28;20241;-83
2022/04/16 05:26:51;;;;;;;8.63;5.47;;;;;;;10.19;100.00;96850.97;5054772;28;20209;-83
2022/04/16 05:29:18;;;;;;;7.80;6.00;;;;;;;10.14;100.00;96853.41;5059556;28;20278;-83
2022/04/16 05:31:45;;;;;;;10.27;6.47;;;;;;;10.07;100.00;96848.06;5055660;28;20205;-84
2022/04/16 05:34:22;;;;;;;10.13;6.77;;;;;;;9.98;100.00;96854.75;5056011;28;20202;-83
2022/04/16 05:36:51;;;;;;;8.17;6.40;;;;;;;9.97;100.00;96847.69;5057133;28;20305;-83
2022/04/16 05:39:19;;;;;;;15.53;7.07;;;;;;;9.99;100.00;96860.97;5057692;28;20198;-83
2022/04/16 05:41:46;;;;;;;17.70;6.97;;;;;;;10.00;100.00;96858.06;5063649;28;20260;-83
2022/04/16 05:44:13;;;;;;;8.80;6.43;;;;;;;10.09;100.00;96866.75;5055968;28;20221;-82
2022/04/16 05:46:42;;;;;;;9.13;6.43;;;;;;;10.11;100.00;96868.19;5075433;28;20237;-82
2022/04/16 05:49:09;;;;;;;7.63;5.87;;;;;;;10.14;100.00;96867.75;5051904;28;20198;-82
2022/04/16 05:51:36;;;;;;;8.30;5.97;;;;;;;10.17;100.00;96866.50;5061461;28;20217;-82
2022/04/16 05:54:05;;;;;;;10.77;6.30;;;;;;;10.24;100.00;96865.44;5067426;28;20293;-82
2022/04/16 05:56:32;;;;;;;8.17;5.80;;;;;;;10.30;100.00;96862.91;5063050;28;20200;-81
2022/04/16 05:59:01;;;;;;;8.00;5.70;;;;;;;10.30;100.00;96855.66;5055205;28;20224;-83
2022/04/16 06:01:28;;;;;;;10.87;5.97;;;;;;;10.39;100.00;96854.34;5059143;28;20242;-83
2022/04/16 06:03:55;;;;;;;6.00;5.33;;;;;;;10.45;100.00;96848.09;5062846;28;20220;-83
2022/04/16 06:06:22;;;;;;;7.17;5.80;;;;;;;10.48;100.00;96850.34;5070725;28;20209;-84
2022/04/16 06:08:49;;;;;;;8.47;6.50;;;;;;;10.46;100.00;96840.84;5072500;28;20213;-83
2022/04/16 06:11:20;;;;;;;10.00;6.73;;;;;;;10.47;100.00;96847.88;5066984;28;20202;-81
2022/04/16 06:13:47;;;;;;;14.10;8.40;;;;;;;10.42;100.00;96848.53;5056612;28;20216;-82
2022/04/16 06:16:14;;;;;;;15.10;8.50;;;;;;;10.44;100.00;96854.53;5060210;28;20214;-82
2022/04/16 06:18:41;;;;;;;15.03;8.07;;;;;;;10.48;100.00;96861.16;5054185;28;20209;-82
2022/04/16 06:21:08;;;;;;;14.13;9.63;;;;;;;10.46;100.00;96865.94;5063118;28;20201;-82
2022/04/16 06:23:35;;;;;;;15.07;10.33;;;;;;;10.48;100.00;96880.06;5057943;28;20234;-82
2022/04/16 06:26:02;;;;;;;14.33;10.57;;;;;;;10.49;100.00;96864.69;5064191;28;20206;-82
2022/04/16 06:28:30;;;;;;;14.50;9.30;;;;;;;10.40;100.00;96868.69;5051865;28;20224;-81
2022/04/16 06:30:57;;;;;;;15.00;9.67;;;;;;;10.35;100.00;96860.41;5066075;28;20313;-82
2022/04/16 06:33:25;;;;;;;14.17;8.90;;;;;;;10.27;100.00;96848.00;5059725;28;20194;-82
2022/04/16 06:35:52;;;;;;;13.37;8.40;;;;;;;10.36;100.00;96852.09;5073172;28;20202;-82
2022/04/16 06:38:19;;;;;;;11.13;8.67;;;;;;;10.41;100.00;96832.53;5080458;28;20296;-82
2022/04/16 06:40:46;;;;;;;14.37;8.40;;;;;;;10.51;100.00;96847.22;5073900;28;20213;-82
2022/04/16 06:43:13;;;;;;;12.73;8.73;;;;;;;10.54;100.00;96852.22;5057698;28;20311;-82
2022/04/16 06:45:42;;;;;;;10.80;8.87;;;;;;;10.63;100.00;96841.13;5052741;28;20279;-83
2022/04/16 06:48:09;;;;;;;11.37;8.97;;;;;;;10.72;100.00;96846.03;5059730;28;21487;-83
2022/04/16 06:50:36;;;;;;;12.23;9.30;;;;;;;10.83;100.00;96847.22;5052843;28;20204;-83
2022/04/16 06:53:03;;;;;;;12.40;8.23;;;;;;;10.91;100.00;96850.47;5059114;28;20248;-83
2022/04/16 06:55:30;;;;;;;12.13;7.80;;;;;;;10.95;100.00;96854.41;5050604;28;20292;-83
2022/04/16 06:57:57;;;;;;;13.10;7.60;;;;;;;11.06;100.00;96854.72;5054929;28;20205;-83
2022/04/16 07:00:24;;;;;;;9.53;7.80;;;;;;;11.10;100.00;96861.34;5051373;28;20355;-84
2022/04/16 07:02:52;;;;;;;14.00;8.07;;;;;;;11.22;100.00;96878.50;5050271;28;20210;-84
2022/04/16 07:05:19;;;;;;;14.30;10.40;;;;;;;11.17;100.00;96867.50;5053170;28;20217;-84
2022/04/16 07:07:47;;;;;;;11.73;7.93;;;;;;;11.05;100.00;96872.81;5057196;28;20209;-84
2022/04/16 07:10:13;;;;;;;11.83;7.77;;;;;;;11.06;100.00;96850.13;5047640;28;20202;-84
2022/04/16 07:12:41;;;;;;;8.97;7.53;;;;;;;11.14;100.00;96860.69;5055653;28;20229;-84
2022/04/16 07:15:09;;;;;;;11.20;8.13;;;;;;;11.18;100.00;96861.88;5051992;28;20219;-84
2022/04/16 07:17:36;;;;;;;11.63;7.50;;;;;;;11.30;100.00;96865.53;5050958;28;20304;-84
2022/04/16 07:20:05;;;;;;;14.23;8.20;;;;;;;11.43;100.00;96861.03;5071260;28;20208;-84
2022/04/16 07:22:34;;;;;;;9.30;7.57;;;;;;;11.49;100.00;96869.06;5063109;28;20255;-83
2022/04/16 07:25:01;;;;;;;8.47;7.60;;;;;;;11.51;100.00;96863.44;5063290;28;20234;-84
2022/04/16 07:27:29;;;;;;;8.37;6.67;;;;;;;11.63;100.00;96848.13;5069490;28;20212;-84
2022/04/16 07:29:58;;;;;;;8.43;6.20;;;;;;;11.79;100.00;96863.81;5055463;28;20206;-87
2022/04/16 07:32:25;;;;;;;8.20;6.37;;;;;;;11.87;100.00;96865.38;5064574;28;20205;-86
2022/04/16 07:34:53;;;;;;;7.03;6.17;;;;;;;11.95;100.00;96856.97;5067909;28;20202;-85
2022/04/16 07:37:22;;;;;;;9.93;6.20;;;;;;;11.93;100.00;96865.28;5072393;28;20205;-86
2022/04/16 07:39:52;;;;;;;10.70;6.10;;;;;;;11.92;100.00;96869.06;5053863;28;20392;-85
2022/04/16 07:42:19;;;;;;;7.67;6.10;;;;;;;11.97;100.00;96871.09;5056356;28;20201;-85
2022/04/16 07:44:46;;;;;;;8.80;6.47;;;;;;;12.03;100.00;96871.00;5057933;28;20281;-84
2022/04/16 07:47:14;;;;;;;9.27;6.90;;;;;;;12.04;100.00;96866.44;5055493;28;20209;-85
2022/04/16 07:49:41;;;;;;;7.33;6.13;;;;;;;12.08;100.00;96862.19;5049164;28;20233;-85
2022/04/16 07:52:08;;;;;;;9.03;6.70;;;;;;;12.16;100.00;96858.38;5057229;28;20216;-85
2022/04/16 07:54:37;;;;;;;10.60;6.80;;;;;;;12.18;100.00;96853.53;5057236;28;20266;-84
2022/04/16 07:57:05;;;;;;;10.83;6.73;;;;;;;12.06;100.00;96865.16;5062632;28;20296;-84
2022/04/16 07:59:32;;;;;;;7.80;6.60;;;;;;;12.08;100.00;96868.44;5059304;28;20198;-84
2022/04/16 08:02:00;;;;;;;7.07;6.23;;;;;;;12.08;100.00;96868.44;5065758;28;20233;-84
2022/04/16 08:04:27;;;;;;;9.13;6.63;;;;;;;12.15;100.00;96857.56;5067821;28;20229;-84
2022/04/16 08:06:54;;;;;;;9.37;6.60;;;;;;;12.35;100.00;96858.09;5054020;28;20245;-84
2022/04/16 08:09:21;;;;;;;10.17;6.63;;;;;;;12.68;100.00;96868.47;5066480;28;20225;-84
2022/04/16 08:11:49;;;;;;;7.13;6.27;;;;;;;12.92;99.95;96866.69;5050727;28;20204;-84
2022/04/16 08:14:16;;;;;;;7.33;5.90;;;;;;;13.16;97.86;96875.69;5047510;28;20202;-85
2022/04/16 08:16:43;;;;;;;7.97;5.93;;;;;;;13.24;96.28;96856.38;5066293;28;20217;-85
2022/04/16 08:19:10;;;;;;;10.60;6.07;;;;;;;13.32;96.45;96866.88;5068995;28;20202;-85
2022/04/16 08:21:37;;;;;;;9.60;5.77;;;;;;;13.37;94.42;96875.13;5046850;28;20240;-86
2022/04/16 08:24:13;;;;;;;6.50;5.77;;;;;;;13.23;93.83;96860.97;5068283;28;20217;-84
2022/04/16 08:26:40;;;;;;;7.00;5.60;;;;;;;13.13;95.24;96862.56;5053909;28;20198;-85
2022/04/16 08:29:09;;;;;;;7.43;5.80;;;;;;;13.12;95.39;96863.63;5072993;28;20208;-85
2022/04/16 08:31:36;;;;;;;7.67;5.73;;;;;;;13.10;95.17;96871.97;5047574;28;20237;-85
2022/04/16 08:34:04;;;;;;;7.83;6.00;;;;;;;13.09;94.84;96869.53;5070331;28;20206;-85
2022/04/16 08:36:31;;;;;;;6.57;5.87;;;;;;;13.19;96.10;96877.94;5053788;28;20208;-86
2022/04/16 08:38:58;;;;;;;7.17;6.03;;;;;;;13.39;94.56;96881.16;5069275;28;20336;-84
2022/04/16 08:41:26;;;;;;;7.40;6.20;;;;;;;13.48;94.45;96879.72;5052103;28;20236;-86
2022/04/16 08:43:54;;;;;;;8.37;6.43;;;;;;;13.66;91.32;96880.69;5071705;28;20226;-86
2022/04/16 08:46:24;;;;;;;7.30;6.13;;;;;;;13.69;91.17;96880.22;5049762;28;20202;-85
2022/04/16 08:48:51;;;;;;;6.67;5.70;;;;;;;13.64;91.13;96879.03;5058373;28;20300;-85
2022/04/16 08:51:19;;;;;;;7.30;5.70;;;;;;;13.59;93.68;96869.94;5063024;28;20208;-85
2022/04/16 08:53:46;;;;;;;9.07;6.40;;;;;;;13.50;93.24;96869.47;5069436;28;20289;-85
2022/04/16 08:56:13;;;;;;;8.87;6.20;;;;;;;13.66;92.48;96875.25;5059264;28;20217;-87
2022/04/16 08:58:40;;;;;;;6.70;6.10;;;;;;;13.87;91.40;96880.06;5047598;28;20206;-85
2022/04/16 09:01:07;;;;;;;8.63;6.90;;;;;;;14.01;91.95;96876.03;5063136;28;20229;-86
2022/04/16 09:03:37;;;;;;;9.07;6.90;;;;;;;14.14;90.68;96873.06;5052639;28;20213;-86
2022/04/16 09:06:05;;;;;;;6.73;6.03;;;;;;;14.13;89.07;96878.72;5072039;28;20209;-86
2022/04/16 09:08:33;;;;;;;7.53;6.73;;;;;;;14.44;89.11;96861.19;5073151;28;20221;-86
2022/04/16 09:11:07;;;;;;;6.93;6.20;;;;;;;14.53;88.54;96873.31;5059487;28;20233;-85
2022/04/16 09:13:35;;;;;;;8.90;6.47;;;;;;;14.44;87.74;96867.44;5057457;28;20205;-86
2022/04/16 09:16:06;;;;;;;9.57;6.70;;;;;;;14.50;86.69;96865.66;5055621;28;20204;-86
2022/04/16 09:18:47;;;;;;;7.73;6.50;;;;;;;14.57;86.62;96861.72;5056757;28;20202;-85
2022/04/16 09:21:14;;;;;;;8.43;6.63;;;;;;;14.51;86.07;96861.88;5062982;28;20210;-86
2022/04/16 09:23:47;;;;;;;8.03;7.07;;;;;;;14.60;86.87;96857.69;5057297;28;20240;-86
2022/04/16 09:26:25;;;;;;;7.47;6.47;;;;;;;14.90;83.57;96860.97;5058553;28;20206;-85
2022/04/16 09:28:52;;;;;;;9.23;7.10;;;;;;;15.15;84.60;96863.28;5059887;28;20212;-85
2022/04/16 09:31:20;;;;;;;8.20;7.30;;;;;;;15.43;83.32;96862.38;5058493;28;20202;-86
2022/04/16 09:33:48;;;;;;;7.07;6.37;;;;;;;15.49;82.45;96856.78;5080360;28;20213;-85
2022/04/16 09:36:25;;;;;;;10.07;6.87;;;;;;;15.45;83.33;96862.97;5064841;28;20210;-86
2022/04/16 09:39:00;;;;;;;9.27;6.70;;;;;;;15.37;81.23;96866.09;5052744;28;20213;-87
2022/04/16 09:41:31;;;;;;;7.63;6.70;;;;;;;15.18;83.00;96867.41;5056064;28;20301;-86
2022/04/16 09:43:59;;;;;;;9.07;7.07;;;;;;;14.89;83.94;96864.75;5058614;28;20322;-86
2022/04/16 09:46:28;;;;;;;7.50;6.70;;;;;;;14.70;85.03;96864.16;5070371;28;20289;-86
2022/04/16 09:49:03;;;;;;;8.17;7.03;;;;;;;14.64;85.26;96875.97;5055065;28;20210;-86
2022/04/16 09:51:35;;;;;;;10.53;7.10;;;;;;;14.59;85.03;96869.63;5059070;28;20259;-87
2022/04/16 09:54:06;;;;;;;10.20;6.97;;;;;;;14.64;85.70;96877.88;5052943;28;20210;-87
2022/04/16 09:56:35;;;;;;;9.80;7.37;;;;;;;14.56;86.48;96868.22;5056438;28;20210;-86
2022/04/16 09:59:04;;;;;;;8.97;7.30;;;;;;;14.58;84.97;96874.25;5060701;28;20202;-86
2022/04/16 10:01:32;;;;;;;7.70;6.90;;;;;;;14.85;84.96;96874.47;5051425;28;20336;-86
2022/04/16 10:04:01;;;;;;;10.50;7.60;;;;;;;15.24;83.26;96866.44;5076622;28;20256;-85
2022/04/16 10:06:29;;;;;;;9.30;7.50;;;;;;;15.52;82.50;96869.06;5070195;28;20202;-86
2022/04/16 10:08:58;;;;;;;8.90;7.60;;;;;;;15.74;81.24;96864.53;5062177;28;20212;-85
2022/04/16 10:12:59;;;;;;;9.83;7.43;;;;;;;15.71;81.92;96862.31;5055834;28;20289;-85
2022/04/16 10:15:34;;;;;;;8.63;7.70;;;;;;;15.62;80.81;96871.97;5124020;27;20587;-86
2022/04/16 10:18:01;;;;;;;10.67;8.07;;;;;;;15.60;80.19;96876.00;5099117;28;20231;-84
2022/04/16 10:20:29;;;;;;;9.83;7.50;;;;;;;15.59;79.44;96885.25;5097099;28;20201;-85
2022/04/16 10:22:58;;;;;;;9.77;7.83;;;;;;;15.58;78.82;96895.31;5098865;28;20200;-85
2022/04/16 10:25:31;;;;;;;8.60;7.67;;;;;;;15.45;79.28;96898.34;5096456;28;20247;-85
2022/04/16 10:28:03;;;;;;;11.20;8.00;;;;;;;15.10;81.55;96899.41;5086102;28;20274;-85
2022/04/16 10:30:39;;;;;;;9.00;7.60;;;;;;;15.11;83.22;96887.44;5087815;28;20204;-86
2022/04/16 10:33:18;;;;;;;8.47;7.10;;;;;;;15.20;80.06;96892.50;5094115;28;20216;-85
2022/04/16 10:36:00;;;;;;;9.10;7.77;;;;;;;15.29;80.48;96891.84;5100346;28;20196;-86
2022/04/16 10:38:37;;;;;;;11.30;7.23;;;;;;;15.52;80.35;96888.13;5097216;28;20208;-85
2022/04/16 10:41:11;;;;;;;9.40;7.57;;;;;;;15.39;79.97;96891.19;5085561;28;20208;-85
2022/04/16 10:43:38;;;;;;;9.70;7.57;;;;;;;15.14;81.08;96897.03;5090356;28;20208;-85
2022/04/16 10:46:08;;;;;;;8.47;7.67;;;;;;;15.24;80.50;96894.47;5095469;28;20197;-86
2022/04/16 10:48:37;;;;;;;8.97;7.57;;;;;;;15.31;80.34;96897.84;5096736;28;20204;-86
2022/04/16 10:51:06;;;;;;;9.10;7.33;;;;;;;15.32;80.53;96898.66;5093731;28;20240;-85
2022/04/16 10:53:34;;;;;;;11.27;7.40;;;;;;;15.44;79.16;96902.13;5094394;28;20221;-86
2022/04/16 10:56:12;;;;;;;8.97;7.80;;;;;;;15.53;79.47;96903.38;5085223;28;20213;-85
2022/04/16 10:58:45;;;;;;;8.10;7.30;;;;;;;15.42;80.29;96898.84;5088491;28;20197;-85
2022/04/16 11:01:25;;;;;;;8.83;7.97;;;;;;;15.32;80.82;96907.66;5097215;28;20203;-88
2022/04/16 11:03:53;;;;;;;8.40;7.53;;;;;;;15.25;80.01;96903.44;5091630;28;20209;-86
2022/04/16 11:06:21;;;;;;;9.10;7.87;;;;;;;15.44;80.41;96905.69;5091773;28;20210;-85
2022/04/16 11:08:48;;;;;;;8.97;7.40;;;;;;;15.33;80.87;96895.69;5096287;28;20219;-85
2022/04/16 11:11:16;;;;;;;8.53;7.27;;;;;;;15.35;80.91;96900.91;5090397;28;20602;-85
2022/04/16 11:13:45;;;;;;;9.70;8.17;;;;;;;15.51;79.63;96891.91;5093142;28;20251;-84
2022/04/16 11:16:13;;;;;;;8.97;7.20;;;;;;;15.93;78.34;96891.47;5086075;28;20217;-85
2022/04/16 11:18:43;;;;;;;8.27;7.30;;;;;;;16.00;76.12;96886.66;5091108;28;20200;-84
2022/04/16 11:21:13;;;;;;;9.27;7.10;;;;;;;15.84;77.71;96894.63;5091808;28;20204;-85
2022/04/16 11:23:42;;;;;;;10.57;7.30;;;;;;;15.66;77.98;96884.00;5100162;28;20214;-85
2022/04/16 11:34:34;;;;;;;8.13;6.20;;;;;;;16.09;75.07;96890.59;5081180;28;20394;-82
2022/04/16 11:37:05;;;;;;;8.53;6.80;;;;;;;16.11;74.52;96894.72;5074489;28;20205;-83
2022/04/16 11:39:34;;;;;;;7.90;6.97;;;;;;;16.04;74.88;96893.28;5071410;28;20251;-83
2022/04/16 11:42:05;;;;;;;8.37;6.80;;;;;;;16.00;74.34;96895.66;5073506;28;20205;-83
2022/04/16 11:44:41;;;;;;;10.30;6.87;;;;;;;16.12;74.96;96885.50;5073834;28;20210;-84
2022/04/16 11:47:11;;;;;;;9.83;7.27;;;;;;;16.35;72.85;96900.75;5075001;28;20207;-84
2022/04/16 11:49:39;;;;;;;8.37;7.00;;;;;;;16.42;73.14;96895.94;5081167;28;20296;-85
2022/04/16 11:52:07;;;;;;;7.63;6.83;;;;;;;16.28;72.40;96900.13;5078964;28;20232;-84
2022/04/16 11:54:34;;;;;;;7.03;6.30;;;;;;;16.36;71.71;96907.88;5080452;28;20228;-83